createdAt,value
2023-05-03T00:01:29.638Z,75.79
2023-05-03T00:04:36.366Z,75.70
2023-05-03T00:07:43.452Z,75.42
2023-05-03T00:10:50.229Z,75.18
2023-05-03T00:13:58.785Z,75.72
2023-05-03T00:17:08.934Z,75.75
2023-05-03T00:20:15.638Z,75.49
2023-05-03T00:23:22.409Z,75.66
2023-05-03T00:26:28.832Z,75.62
2023-05-03T00:29:39.051Z,75.54
2023-05-03T00:32:44.983Z,75.22
2023-05-03T00:35:52.640Z,73.94
2023-05-03T00:38:58.597Z,73.57
2023-05-03T00:42:07.444Z,74.13
2023-05-03T00:45:16.564Z,74.11
2023-05-03T00:48:23.598Z,75.09
2023-05-03T00:51:31.510Z,75.17
2023-05-03T00:54:42.695Z,75.70
2023-05-03T00:57:48.621Z,74.50
2023-05-03T01:01:02.875Z,74.94
2023-05-03T01:04:10.736Z,75.61
2023-05-03T01:07:40.789Z,76.67
2023-05-03T01:10:58.590Z,76.98
2023-05-03T01:14:31.764Z,77.37
2023-05-03T01:17:50.208Z,77.40
2023-05-03T01:20:58.391Z,77.85
2023-05-03T01:24:14.554Z,77.28
2023-05-03T01:27:24.823Z,78.38
2023-05-03T01:30:36.128Z,77.86
2023-05-03T01:33:52.906Z,76.45
2023-05-03T01:37:06.237Z,76.46
2023-05-03T01:40:19.791Z,76.25
2023-05-03T01:43:32.643Z,75.76
2023-05-03T01:46:44.613Z,74.77
2023-05-03T01:49:51.540Z,73.83
2023-05-03T01:52:57.424Z,73.52
2023-05-03T01:56:04.231Z,72.99
2023-05-03T01:59:14.462Z,72.85
2023-05-03T02:02:21.472Z,73.96
2023-05-03T02:05:27.319Z,73.68
2023-05-03T02:08:34.187Z,73.95
2023-05-03T02:11:40.222Z,73.66
2023-05-03T02:14:49.485Z,74.21
2023-05-03T02:17:56.118Z,76.34
2023-05-03T02:21:02.999Z,77.66
2023-05-03T02:24:09.977Z,78.10
2023-05-03T02:27:16.672Z,78.85
2023-05-03T02:30:25.607Z,78.17
2023-05-03T02:33:32.497Z,77.13
2023-05-03T02:36:39.652Z,76.33
2023-05-03T02:39:47.002Z,76.43
2023-05-03T02:42:55.533Z,76.45
2023-05-03T02:46:09.830Z,76.71
2023-05-03T02:49:15.681Z,77.14
2023-05-03T02:52:23.887Z,77.24
2023-05-03T02:55:30.100Z,77.24
2023-05-03T02:58:36.945Z,77.31
2023-05-03T03:01:46.639Z,77.31
2023-05-03T03:05:02.625Z,77.86
2023-05-03T03:08:09.206Z,78.56
2023-05-03T03:11:17.192Z,79.30
2023-05-03T03:14:23.188Z,79.09
2023-05-03T03:17:32.862Z,79.04
2023-05-03T03:20:43.148Z,78.66
2023-05-03T03:24:00.149Z,77.66
2023-05-03T03:27:07.090Z,78.56
2023-05-03T03:30:21.762Z,78.80
2023-05-03T03:33:44.683Z,78.20
2023-05-03T03:37:08.108Z,79.43
2023-05-03T03:40:17.108Z,79.82
2023-05-03T03:43:25.114Z,78.70
2023-05-03T03:46:31.582Z,78.76
2023-05-03T03:49:44.637Z,78.47
2023-05-03T03:52:50.664Z,78.75
2023-05-03T03:55:57.475Z,78.96
2023-05-03T03:59:04.511Z,79.64
2023-05-03T04:02:11.460Z,80.42
2023-05-03T04:05:20.188Z,80.90
2023-05-03T04:08:27.920Z,81.09
2023-05-03T04:11:36.102Z,80.99
2023-05-03T04:14:44.280Z,81.88
2023-05-03T04:17:50.306Z,82.28
2023-05-03T04:20:59.858Z,83.16
2023-05-03T04:24:07.606Z,83.91
2023-05-03T04:27:18.497Z,83.64
2023-05-03T04:30:25.069Z,83.63
2023-05-03T04:33:35.304Z,83.52
2023-05-03T04:36:46.689Z,83.86
2023-05-03T04:39:54.595Z,84.05
2023-05-03T04:43:00.908Z,84.04
2023-05-03T04:46:10.331Z,83.83
2023-05-03T04:49:18.107Z,83.58
2023-05-03T04:52:30.003Z,83.90
2023-05-03T04:55:36.113Z,83.62
2023-05-03T04:58:44.844Z,83.38
2023-05-03T05:01:53.543Z,83.06
2023-05-03T05:05:00.703Z,83.25
2023-05-03T05:08:21.724Z,83.04
2023-05-03T05:11:46.405Z,82.42
2023-05-03T05:14:52.459Z,82.14
2023-05-03T05:18:00.119Z,81.96
2023-05-03T05:21:25.172Z,82.17
2023-05-03T05:24:35.187Z,81.56
2023-05-03T05:27:41.824Z,80.57
2023-05-03T05:30:48.909Z,79.66
2023-05-03T05:33:55.104Z,79.03
2023-05-03T05:37:05.967Z,79.16
2023-05-03T05:40:16.965Z,78.24
2023-05-03T05:43:29.574Z,77.33
2023-05-03T05:46:44.086Z,77.14
2023-05-03T05:49:51.571Z,77.50
2023-05-03T05:52:57.643Z,77.49
2023-05-03T05:56:11.629Z,77.75
2023-05-03T05:59:17.697Z,76.70
2023-05-03T06:02:25.390Z,76.75
2023-05-03T06:05:31.690Z,76.25
2023-05-03T06:08:39.368Z,75.42
2023-05-03T06:11:47.998Z,75.67
2023-05-03T06:18:09.285Z,75.61
2023-05-03T06:21:16.131Z,75.21
2023-05-03T06:24:22.185Z,75.36
2023-05-03T06:27:34.836Z,74.19
2023-05-03T06:30:45.096Z,74.07
2023-05-03T06:33:53.424Z,72.52
2023-05-03T06:36:59.946Z,72.25
2023-05-03T06:40:08.002Z,72.77
2023-05-03T06:43:18.436Z,72.12
2023-05-03T06:46:31.712Z,72.54
2023-05-03T06:49:37.872Z,72.75
2023-05-03T06:52:46.550Z,73.44
2023-05-03T06:55:52.518Z,73.24
2023-05-03T06:59:08.821Z,73.26
2023-05-03T07:02:29.959Z,73.22
2023-05-03T07:05:37.637Z,72.61
2023-05-03T07:08:45.514Z,72.39
2023-05-03T07:11:57.382Z,71.88
2023-05-03T07:15:06.089Z,71.66
2023-05-03T07:18:12.982Z,70.45
2023-05-03T07:21:21.271Z,69.65
2023-05-03T07:24:28.243Z,69.40
2023-05-03T07:27:34.094Z,68.70
2023-05-03T07:30:46.517Z,67.81
2023-05-03T07:33:52.561Z,67.66
2023-05-03T07:36:59.525Z,67.37
2023-05-03T07:40:13.920Z,66.34
2023-05-03T07:43:26.657Z,65.43
2023-05-03T07:46:35.702Z,65.42
2023-05-03T07:49:42.649Z,64.79
2023-05-03T07:52:51.655Z,64.82
2023-05-03T07:55:58.671Z,62.86
2023-05-03T07:59:09.866Z,62.33
2023-05-03T08:02:20.006Z,61.82
2023-05-03T08:05:26.406Z,60.85
2023-05-03T08:08:34.269Z,59.40
2023-05-03T08:11:44.317Z,59.35
2023-05-03T08:14:51.211Z,58.90
2023-05-03T08:18:00.264Z,57.99
2023-05-03T08:21:18.598Z,58.66
2023-05-03T08:24:24.556Z,57.79
2023-05-03T08:27:31.196Z,57.60
2023-05-03T08:30:37.290Z,57.44
2023-05-03T08:33:46.752Z,56.94
2023-05-03T08:36:52.679Z,56.76
2023-05-03T08:40:00.527Z,57.94
2023-05-03T08:43:14.903Z,58.07
2023-05-03T08:46:22.154Z,59.49
2023-05-03T08:49:36.654Z,60.08
2023-05-03T08:52:45.937Z,59.48
2023-05-03T08:55:51.773Z,58.62
2023-05-03T08:59:01.736Z,58.65
2023-05-03T09:02:11.642Z,58.66
2023-05-03T09:05:41.859Z,58.49
2023-05-03T09:08:47.901Z,58.14
2023-05-03T09:11:54.727Z,58.83
2023-05-03T09:15:01.289Z,59.00
2023-05-03T09:18:19.723Z,59.24
2023-05-03T09:21:29.005Z,59.15
2023-05-03T09:24:38.105Z,58.63
2023-05-03T09:27:46.138Z,57.57
2023-05-03T09:31:07.783Z,56.72
2023-05-03T09:34:26.146Z,56.59
2023-05-03T09:37:42.171Z,57.04
2023-05-03T09:40:51.487Z,56.22
2023-05-03T09:44:03.221Z,56.70
2023-05-03T09:47:10.670Z,56.46
2023-05-03T09:50:17.784Z,56.12
2023-05-03T09:53:32.781Z,56.71
2023-05-03T09:56:41.243Z,55.93
2023-05-03T09:59:51.038Z,55.66
2023-05-03T10:03:02.607Z,56.99
2023-05-03T10:06:22.208Z,56.40
2023-05-03T10:09:40.207Z,56.58
2023-05-03T10:12:49.091Z,56.80
2023-05-03T10:16:06.806Z,56.37
2023-05-03T10:19:20.811Z,57.01
2023-05-03T10:22:27.702Z,56.60
2023-05-03T10:25:40.118Z,56.10
2023-05-03T10:28:47.121Z,55.18
2023-05-03T10:31:56.598Z,56.21
2023-05-03T10:35:16.856Z,56.72
2023-05-03T10:38:28.937Z,56.65
2023-05-03T10:41:39.632Z,56.94
2023-05-03T10:44:55.701Z,57.08
2023-05-03T10:48:24.488Z,56.50
2023-05-03T10:51:39.154Z,56.37
2023-05-03T10:54:46.488Z,55.83
2023-05-03T10:57:59.357Z,55.07
2023-05-03T11:01:09.246Z,55.96
2023-05-03T11:04:27.630Z,55.37
2023-05-03T11:07:35.518Z,55.52
2023-05-03T11:10:41.509Z,55.61
2023-05-03T11:13:53.393Z,55.52
2023-05-03T11:16:59.876Z,55.22
2023-05-03T11:20:10.210Z,54.80
2023-05-03T11:23:16.485Z,55.03
2023-05-03T11:26:26.677Z,55.42
2023-05-03T11:29:35.333Z,55.83
2023-05-03T11:32:42.886Z,54.80
2023-05-03T11:35:48.825Z,54.66
2023-05-03T11:38:55.574Z,56.09
2023-05-03T11:42:07.012Z,53.33
2023-05-03T11:45:16.892Z,53.42
2023-05-03T11:48:23.589Z,52.05
2023-05-03T11:51:30.579Z,52.74
2023-05-03T11:54:36.705Z,53.37
2023-05-03T11:57:44.659Z,52.81
2023-05-03T12:00:55.546Z,53.32
2023-05-03T12:04:05.824Z,53.01
2023-05-03T12:07:16.860Z,52.11
2023-05-03T12:10:35.539Z,51.19
2023-05-03T12:13:44.328Z,52.26
2023-05-03T12:16:56.950Z,52.37
2023-05-03T12:23:29.901Z,53.03
2023-05-03T12:26:37.880Z,52.06
2023-05-03T12:29:46.936Z,52.19
2023-05-03T12:32:58.450Z,51.97
2023-05-03T12:36:09.225Z,51.69
2023-05-03T12:39:16.501Z,52.59
2023-05-03T12:42:23.786Z,52.59
2023-05-03T12:45:34.490Z,52.90
2023-05-03T12:48:46.605Z,53.88
2023-05-03T12:52:11.352Z,53.60
2023-05-03T12:55:24.531Z,53.48
2023-05-03T12:58:57.901Z,52.79
2023-05-03T13:05:33.069Z,52.90
2023-05-03T13:08:48.173Z,52.83
2023-05-03T13:11:55.433Z,53.55
2023-05-03T13:15:04.589Z,53.87
2023-05-03T13:18:11.298Z,52.80
2023-05-03T13:21:20.849Z,52.68
2023-05-03T13:24:26.868Z,52.86
2023-05-03T13:27:34.149Z,51.14
2023-05-03T13:30:40.093Z,51.56
2023-05-03T13:33:46.918Z,51.02
2023-05-03T13:36:55.627Z,49.84
2023-05-03T13:40:02.896Z,49.96
2023-05-03T13:43:09.106Z,50.47
2023-05-03T13:46:16.507Z,50.15
2023-05-03T13:49:22.711Z,48.77
2023-05-03T13:52:34.125Z,49.54
2023-05-03T13:55:44.090Z,48.60
2023-05-03T13:58:50.821Z,49.60
2023-05-03T14:01:56.883Z,48.14
2023-05-03T14:05:05.899Z,47.87
2023-05-03T14:08:14.670Z,46.73
2023-05-03T14:11:23.012Z,46.96
2023-05-03T14:14:30.597Z,46.11
2023-05-03T14:17:37.693Z,45.73
2023-05-03T14:20:43.679Z,45.45
2023-05-03T14:23:55.788Z,44.41
2023-05-03T14:27:03.990Z,45.01
2023-05-03T14:30:12.490Z,45.53
2023-05-03T14:33:18.854Z,44.18
2023-05-03T14:36:27.431Z,45.06
2023-05-03T14:39:35.937Z,44.91
2023-05-03T14:42:42.769Z,45.30
2023-05-03T14:45:48.764Z,44.92
2023-05-03T14:49:11.517Z,44.62
2023-05-03T14:52:17.961Z,43.94
2023-05-03T14:55:28.706Z,45.39
2023-05-03T14:58:34.748Z,45.96
2023-05-03T15:01:41.597Z,45.45
2023-05-03T15:04:48.764Z,45.07
2023-05-03T15:07:55.698Z,45.25
2023-05-03T15:11:04.553Z,45.46
2023-05-03T15:14:16.683Z,45.40
2023-05-03T15:17:31.082Z,45.52
2023-05-03T15:20:43.304Z,45.99
2023-05-03T15:23:52.053Z,46.05
2023-05-03T15:27:06.471Z,46.16
2023-05-03T15:30:20.380Z,46.22
2023-05-03T15:33:27.160Z,45.63
2023-05-03T15:36:35.393Z,46.24
2023-05-03T15:39:42.461Z,46.83
2023-05-03T15:42:52.206Z,45.63
2023-05-03T15:46:00.735Z,46.83
2023-05-03T15:49:17.999Z,46.69
2023-05-03T15:52:25.664Z,44.52
2023-05-03T15:55:31.890Z,45.00
2023-05-03T15:58:41.533Z,44.44
2023-05-03T16:01:48.818Z,45.29
2023-05-03T16:04:56.006Z,44.16
2023-05-03T16:08:08.513Z,44.95
2023-05-03T16:11:15.713Z,45.25
2023-05-03T16:14:25.191Z,45.04
2023-05-03T16:17:32.003Z,44.52
2023-05-03T16:20:38.152Z,43.50
2023-05-03T16:23:52.115Z,43.55
2023-05-03T16:26:58.180Z,44.34
2023-05-03T16:30:15.478Z,43.85
2023-05-03T16:33:24.590Z,44.15
2023-05-03T16:36:32.998Z,44.32
2023-05-03T16:39:39.258Z,44.88
2023-05-03T16:42:46.035Z,45.13
2023-05-03T16:46:02.897Z,45.10
2023-05-03T16:49:29.108Z,45.22
2023-05-03T16:52:41.638Z,45.01
2023-05-03T16:55:48.485Z,44.87
2023-05-03T16:58:56.756Z,45.34
2023-05-03T17:02:11.997Z,44.85
2023-05-03T17:05:26.537Z,45.17
2023-05-03T17:08:33.461Z,45.00
2023-05-03T17:11:39.809Z,45.97
2023-05-03T17:14:46.502Z,46.77
2023-05-03T17:17:55.210Z,46.07
2023-05-03T17:21:05.117Z,46.17
2023-05-03T17:24:11.810Z,45.31
2023-05-03T17:27:18.914Z,46.11
2023-05-03T17:30:28.588Z,45.13
2023-05-03T17:33:38.793Z,45.80
2023-05-03T17:36:45.691Z,45.58
2023-05-03T17:39:52.380Z,46.36
2023-05-03T17:42:58.378Z,46.29
2023-05-03T17:46:16.068Z,45.97
2023-05-03T17:49:24.686Z,47.09
2023-05-03T17:52:31.575Z,46.60
2023-05-03T17:55:39.477Z,45.86
2023-05-03T17:58:47.166Z,45.62
2023-05-03T18:01:53.185Z,45.80
2023-05-03T18:05:03.164Z,45.52
2023-05-03T18:08:09.839Z,45.67
2023-05-03T18:11:16.922Z,45.08
2023-05-03T18:14:30.008Z,53.12
2023-05-03T18:17:39.576Z,55.15
2023-05-03T18:20:48.262Z,56.62
2023-05-03T18:23:57.201Z,58.75
2023-05-03T18:27:04.222Z,59.27
2023-05-03T18:30:17.409Z,61.82
2023-05-03T18:33:23.369Z,63.24
2023-05-03T18:36:32.789Z,64.62
2023-05-03T18:39:39.780Z,65.45
2023-05-03T18:42:57.875Z,66.21
2023-05-03T18:46:05.168Z,67.04
2023-05-03T18:49:13.067Z,68.20
2023-05-03T18:52:23.053Z,68.93
2023-05-03T18:55:29.835Z,69.69
2023-05-03T18:58:36.586Z,70.97
2023-05-03T19:01:43.368Z,72.46
2023-05-03T19:04:49.379Z,73.84
2023-05-03T19:07:58.838Z,75.24
2023-05-03T19:11:11.368Z,76.20
2023-05-03T19:14:18.146Z,77.01
2023-05-03T19:17:24.086Z,77.48
2023-05-03T19:20:30.911Z,77.95
2023-05-03T19:23:39.557Z,77.27
2023-05-03T19:26:46.413Z,77.07
2023-05-03T19:29:52.620Z,77.21
2023-05-03T19:32:59.921Z,76.93
2023-05-03T19:36:07.020Z,77.01
2023-05-03T19:39:19.586Z,77.26
2023-05-03T19:42:26.406Z,77.75
2023-05-03T19:45:33.276Z,78.11
2023-05-03T19:48:39.176Z,77.62
2023-05-03T19:51:45.981Z,77.45
2023-05-03T19:54:54.552Z,76.77
2023-05-03T19:58:01.316Z,77.00
2023-05-03T20:01:07.551Z,77.20
2023-05-03T20:04:14.453Z,76.49
2023-05-03T20:07:20.366Z,76.80
2023-05-03T20:10:35.788Z,76.81
2023-05-03T20:13:42.003Z,77.03
2023-05-03T20:16:49.151Z,76.53
2023-05-03T20:19:56.047Z,77.34
2023-05-03T20:23:03.046Z,76.81
2023-05-03T20:26:11.614Z,77.36
2023-05-03T20:29:18.399Z,76.82
2023-05-03T20:32:24.467Z,76.89
2023-05-03T20:35:31.185Z,77.93
2023-05-03T20:38:37.340Z,76.72
2023-05-03T20:41:46.845Z,76.77
2023-05-03T20:44:55.507Z,77.17
2023-05-03T20:48:02.212Z,77.35
2023-05-03T20:51:11.763Z,77.24
2023-05-03T20:54:18.591Z,78.20
2023-05-03T20:57:27.242Z,77.05
2023-05-03T21:00:34.311Z,77.03
2023-05-03T21:03:40.257Z,77.34
2023-05-03T21:06:47.199Z,77.75
2023-05-03T21:09:53.057Z,77.17
2023-05-03T21:13:03.970Z,77.06
2023-05-03T21:16:10.708Z,77.91
2023-05-03T21:19:17.501Z,77.36
2023-05-03T21:22:23.804Z,78.16
2023-05-03T21:25:30.691Z,78.27
2023-05-03T21:28:39.334Z,78.01
2023-05-03T21:31:46.181Z,77.93
2023-05-03T21:34:52.613Z,78.87
2023-05-03T21:37:59.446Z,78.79
2023-05-03T21:41:07.440Z,79.25
2023-05-03T21:44:17.003Z,79.12
2023-05-03T21:47:23.537Z,79.06
2023-05-03T21:50:30.311Z,78.79
2023-05-03T21:53:36.179Z,79.70
2023-05-03T21:56:42.942Z,79.05
2023-05-03T21:59:54.176Z,78.56
2023-05-03T22:03:01.123Z,78.94
2023-05-03T22:06:07.608Z,77.99
2023-05-03T22:09:14.515Z,78.84
2023-05-03T22:12:24.192Z,78.42
2023-05-03T22:15:34.994Z,78.58
2023-05-03T22:18:41.260Z,78.28
2023-05-03T22:21:48.005Z,77.87
2023-05-03T22:24:53.852Z,77.71
2023-05-03T22:28:01.143Z,77.84
2023-05-03T22:31:09.745Z,78.61
2023-05-03T22:34:16.616Z,78.08
2023-05-03T22:37:22.513Z,78.50
2023-05-03T22:40:29.365Z,78.88
2023-05-03T22:43:38.002Z,79.12
2023-05-03T22:46:47.387Z,79.16
2023-05-03T22:49:53.316Z,79.21
2023-05-03T22:53:00.195Z,78.95
2023-05-03T22:56:07.428Z,78.79
2023-05-03T22:59:16.052Z,78.59
2023-05-03T23:02:26.921Z,78.59
2023-05-03T23:05:33.731Z,77.98
2023-05-03T23:08:39.618Z,77.92
2023-05-03T23:11:46.418Z,77.37
2023-05-03T23:14:52.444Z,77.96
2023-05-03T23:18:02.209Z,77.86
2023-05-03T23:21:08.289Z,77.38
2023-05-03T23:24:15.222Z,77.46
2023-05-03T23:27:21.169Z,77.02
2023-05-03T23:30:28.475Z,77.07
2023-05-03T23:33:37.565Z,77.26
2023-05-03T23:36:44.349Z,77.14
2023-05-03T23:39:50.295Z,77.57
2023-05-03T23:42:57.148Z,77.22
2023-05-03T23:46:03.152Z,77.92
2023-05-03T23:49:14.419Z,77.94
2023-05-03T23:52:21.110Z,77.25
2023-05-03T23:55:27.896Z,76.25
2023-05-03T23:58:33.806Z,74.64
